Latest Weather Observations for Cape Sorell

IDT60801

Issued at 1:32 pm EST Thursday 17 August 2017 (issued every 30 minutes, with the page automatically refreshed every 10 minutes)

About weather observations | Map of weather stations | Latest weather observations for TAS | Other Formats
Station Details ID: 097000 Name: CAPE SORELL Lat: -42.20 Lon: 145.17 Height: 19.3 m
Data from the previous 72 hours. | See also: Recent months at Cape Sorell
Date/Time
EST
Temp
°C
App
Temp
°C
Dew
Point
°C
Rel
Hum
%
Delta-T
°C
Wind Press
QNH
hPa
Press
MSL
hPa
Rain since
9am
mm
Dir  Spd
km/h
Gust
km/h
Spd
kts
Gust
kts
17/01:30pm 10.0 1.0 4.6 69 2.4 W 41 59 22 32 991.1 991.1 0.0
17/01:06pm 11.2 2.0 5.3 67 2.7 WNW 43 61 23 33 990.9 990.9 0.0
17/01:00pm 11.9 3.2 6.0 67 2.8 WNW 41 56 22 30 991.1 991.1 0.0
17/12:38pm 11.2 3.1 5.3 67 2.7 WNW 37 61 20 33 991.3 991.3 0.0
17/12:30pm 11.5 3.5 5.6 67 2.7 W 37 52 20 28 991.3 991.3 0.0
17/12:00pm 11.7 4.6 6.2 69 2.6 W 33 46 18 25 991.6 991.6 0.0
17/11:30am 11.1 2.3 5.4 68 2.6 WNW 41 59 22 32 991.3 991.3 0.0
17/11:00am 9.9 2.1 4.9 71 2.3 WNW 35 46 19 25 991.7 991.7 0.0
17/10:46am 11.6 3.6 5.7 67 2.7 WNW 37 59 20 32 991.6 991.6 0.0
17/10:30am 11.8 3.9 6.1 68 2.7 WNW 37 52 20 28 991.7 991.7 0.0
17/10:00am 11.2 2.4 5.7 69 2.6 WNW 41 57 22 31 991.4 991.4 0.0
17/09:34am 11.1 2.4 5.8 70 2.5 WNW 41 59 22 32 991.4 991.4 0.0
17/09:30am 11.3 2.0 6.0 70 2.5 WNW 44 59 24 32 991.4 991.4 0.0
17/09:15am 10.7 1.6 6.1 73 2.1 WNW 43 61 23 33 991.2 991.2 0.0
17/09:00am 10.4 1.1 6.0 74 2.1 WNW 44 56 24 30 991.1 991.1 3.6
17/08:30am 10.0 1.7 6.2 77 1.8 WNW 39 54 21 29 991.2 991.2 3.6
17/08:00am 9.1 0.2 5.1 76 1.8 W 41 56 22 30 991.0 991.0 3.6
17/07:49am 10.2 1.5 5.8 74 2.0 W 41 61 22 33 990.7 990.7 3.6
17/07:30am 9.8 0.5 5.8 76 1.8 W 44 59 24 32 990.4 990.4 3.6
17/07:08am 9.4 0.7 5.9 79 1.6 W 41 61 22 33 990.1 990.1 3.6
17/07:00am 9.3 0.2 5.9 79 1.6 W 43 56 23 30 990.1 990.1 3.6
17/06:31am 9.2 0.5 5.9 80 1.5 WNW 41 61 22 33 989.8 989.8 3.6
17/06:30am 9.3 1.0 6.0 80 1.5 WNW 39 57 21 31 989.8 989.8 3.6
17/06:15am 9.5 0.3 6.2 80 1.5 WNW 44 56 24 30 989.8 989.8 3.6
17/06:03am 9.1 -0.9 6.0 81 1.4 W 48 67 26 36 989.6 989.6 3.6
17/06:00am 8.8 -2.1 5.7 81 1.4 W 52 69 28 37 989.5 989.5 3.6
17/05:30am 8.4 -1.7 5.5 82 1.3 W 48 70 26 38 989.4 989.4 3.4
17/05:00am 9.0 -2.0 5.0 76 1.8 WNW 52 80 28 43 988.9 988.9 3.2
17/04:51am 9.9 -0.5 5.9 76 1.8 WNW 50 70 27 38 988.9 988.9 3.0
17/04:30am 9.3 -1.2 5.7 78 1.6 WNW 50 69 27 37 988.5 988.5 3.0
17/04:00am 9.4 -0.3 5.8 78 1.7 WNW 46 65 25 35 988.7 988.7 3.0
17/03:31am 9.2 1.2 5.8 79 1.6 W 37 57 20 31 988.7 988.7 3.0
17/03:30am 9.2 1.2 5.8 79 1.6 W 37 54 20 29 988.7 988.7 3.0
17/03:00am 10.0 1.3 6.0 76 1.9 WNW 41 67 22 36 988.6 988.6 2.8
17/02:56am 9.8 0.7 5.8 76 1.8 WNW 43 67 23 36 988.4 988.4 2.8
17/02:30am 9.6 -0.4 6.0 78 1.7 WNW 48 61 26 33 988.8 988.8 2.8
17/02:00am 8.9 -0.5 5.6 80 1.5 WNW 44 54 24 29 988.8 988.8 2.8
17/01:48am 9.1 -2.1 5.7 79 1.5 WNW 54 82 29 44 988.8 988.8 2.6
17/01:40am 9.8 -1.9 6.2 78 1.7 WNW 57 83 31 45 988.6 988.6 2.6
17/01:36am 10.0 0.0 6.2 77 1.8 WNW 48 83 26 45 988.3 988.3 2.6
17/01:35am 10.4 0.9 6.7 78 1.7 WNW 46 83 25 45 988.5 988.5 2.6
17/01:30am 10.0 0.8 6.3 78 1.7 WNW 44 57 24 31 988.6 988.6 2.6
17/01:00am 9.2 -0.6 5.2 76 1.8 WNW 46 69 25 37 988.7 988.7 2.6
17/12:44am 10.7 -0.1 5.9 72 2.2 NW 52 80 28 43 988.6 988.6 2.4
17/12:31am 11.1 2.9 6.5 73 2.2 NW 39 57 21 31 989.0 989.0 2.4
17/12:30am 11.0 2.4 6.4 73 2.2 NW 41 57 22 31 989.0 989.0 2.4
17/12:00am 11.2 2.3 6.7 74 2.2 WNW 43 52 23 28 989.4 989.4 2.4
 
Date/Time
EST
Temp
°C
App
Temp
°C
Dew
Point
°C
Rel
Hum
%
Delta-T
°C
Wind Press
QNH
hPa
Press
MSL
hPa
Rain since
9am
mm
Dir  Spd
km/h
Gust
km/h
Spd
kts
Gust
kts
16/11:30pm 11.1 3.0 6.8 75 2.0 WNW 39 52 21 28 989.6 989.6 2.4
16/11:09pm 10.5 1.6 6.8 78 1.7 WNW 43 61 23 33 989.7 989.7 2.4
16/11:00pm 10.5 1.0 6.8 78 1.8 WNW 46 61 25 33 989.7 989.7 2.4
16/10:40pm 10.1 0.2 6.4 78 1.7 WNW 48 69 26 37 990.2 990.2 2.4
16/10:30pm 10.2 1.1 6.7 79 1.6 WNW 44 65 24 35 989.9 989.9 2.4
16/10:02pm 9.7 0.6 6.1 78 1.7 W 43 65 23 35 990.1 990.1 2.4
16/10:00pm 9.6 -0.1 5.8 77 1.8 W 46 67 25 36 989.9 989.9 2.4
16/09:31pm 11.3 1.4 6.4 72 2.3 WNW 48 67 26 36 989.8 989.8 1.8
16/09:30pm 11.3 1.4 6.4 72 2.3 WNW 48 63 26 34 989.8 989.8 1.8
16/09:17pm 11.2 2.6 6.5 73 2.2 WNW 41 61 22 33 990.1 990.1 1.8
16/09:00pm 11.1 2.0 6.6 74 2.1 WNW 44 59 24 32 989.9 989.9 1.8
16/08:34pm 10.5 1.4 6.6 77 1.8 WNW 44 65 24 35 989.8 989.8 1.8
16/08:30pm 10.5 1.4 6.6 77 1.8 WNW 44 61 24 33 990.0 990.0 1.8
16/08:02pm 11.6 1.8 6.9 73 2.2 WNW 48 91 26 49 989.7 989.7 1.8
16/08:00pm 11.5 2.0 6.8 73 2.3 WNW 46 69 25 37 989.7 989.7 1.8
16/07:55pm 11.1 0.8 6.5 73 2.2 WNW 50 69 27 37 989.4 989.4 1.8
16/07:30pm 10.9 1.4 6.6 75 2.0 WNW 46 63 25 34 989.3 989.3 1.8
16/07:22pm 11.3 2.4 6.8 74 2.1 WNW 43 61 23 33 989.2 989.2 1.8
16/07:00pm 10.9 1.8 6.8 76 2.0 W 44 61 24 33 989.3 989.3 1.8
16/06:30pm 10.5 -1.3 5.7 72 2.2 W 57 76 31 41 988.3 988.3 1.8
16/06:00pm 11.3 -0.2 6.4 72 2.3 W 56 80 30 43 987.5 987.5 1.8
16/05:30pm 11.7 0.8 7.2 74 2.2 W 54 74 29 40 987.3 987.3 1.8
16/05:00pm 10.5 -0.2 6.6 77 1.9 W 52 76 28 41 986.7 986.7 1.8
16/04:33pm 11.4 0.4 6.7 73 2.2 W 54 74 29 40 986.4 986.4 1.4
16/04:30pm 11.5 0.1 6.8 73 2.2 W 56 74 30 40 986.3 986.3 1.4
16/04:00pm 11.3 0.5 7.6 78 1.8 W 54 72 29 39 985.7 985.7 1.4
16/03:30pm 11.0 1.1 8.1 82 1.4 WNW 50 72 27 39 985.5 985.5 1.4
16/03:00pm 11.7 1.8 8.2 79 1.7 WNW 50 70 27 38 984.9 984.9 1.0
16/02:30pm 11.2 -0.1 7.3 77 1.9 WNW 56 82 30 44 984.0 984.0 1.0
16/02:00pm 10.6 -1.0 6.7 77 1.9 WNW 57 78 31 42 984.0 984.0 1.0
16/01:34pm 11.8 1.1 7.9 77 1.9 NW 54 74 29 40 984.1 984.1 0.8
16/01:30pm 11.6 0.8 7.7 77 1.9 WNW 54 69 29 37 984.1 984.1 0.8
16/01:14pm 11.6 0.9 8.1 79 1.7 WNW 54 76 29 41 983.7 983.7 0.8
16/01:00pm 10.4 -1.5 6.9 79 1.7 WNW 59 104 32 56 983.7 983.7 0.8
16/12:59pm 10.3 -1.6 6.8 79 1.6 WNW 59 104 32 56 983.8 983.8 0.8
16/12:53pm 11.1 -0.2 7.2 77 1.9 NW 56 104 30 56 983.1 983.1 0.8
16/12:52pm 12.1 1.9 8.4 78 1.8 NW 52 104 28 56 983.4 983.4 0.8
16/12:32pm 12.1 2.3 8.8 80 1.6 WNW 50 70 27 38 983.8 983.8 0.8
16/12:30pm 12.1 2.3 8.8 80 1.6 WNW 50 67 27 36 983.8 983.8 0.8
16/12:00pm 11.0 1.5 8.2 83 1.4 W 48 74 26 40 984.0 984.0 0.8
16/11:47am 10.8 1.6 8.2 84 1.3 WNW 46 69 25 37 983.8 983.8 0.8
16/11:30am 10.1 0.8 7.7 85 1.2 WNW 46 61 25 33 983.9 983.9 0.8
16/11:00am 10.5 1.6 7.7 83 1.4 WNW 44 65 24 35 983.8 983.8 0.4
16/10:56am 11.0 2.4 8.2 83 1.4 WNW 43 63 23 34 983.8 983.8 0.4
16/10:30am 10.4 1.1 7.6 83 1.3 WNW 46 61 25 33 983.7 983.7 0.2
16/10:12am 11.4 2.8 8.8 84 1.3 WNW 44 63 24 34 983.3 983.3 0.2
16/10:00am 11.4 3.0 9.0 85 1.2 WNW 43 57 23 31 983.5 983.5 0.2
16/09:32am 10.3 2.5 8.1 86 1.1 WNW 39 57 21 31 983.2 983.2 0.0
16/09:30am 10.2 2.0 8.0 86 1.1 WNW 41 57 22 31 983.2 983.2 0.0
16/09:00am 10.3 2.8 8.1 86 1.1 WNW 37 54 20 29 982.9 982.9 13.0
16/08:33am 10.7 3.3 8.5 86 1.1 WNW 37 57 20 31 982.6 982.6 12.4
16/08:30am 10.7 3.3 8.5 86 1.1 WNW 37 46 20 25 982.6 982.6 12.4
16/08:00am 10.7 4.7 8.5 86 1.1 NW 30 43 16 23 982.7 982.7 12.4
16/07:30am 10.5 4.0 8.3 86 1.1 NW 32 43 17 23 982.6 982.6 12.4
16/07:00am 10.0 3.4 7.9 87 1.0 NW 32 41 17 22 982.3 982.3 12.4
16/06:30am 9.3 1.2 7.1 86 1.0 WNW 39 50 21 27 981.9 981.9 12.2
16/06:27am 9.2 0.3 7.0 86 1.0 WNW 43 54 23 29 981.9 981.9 12.2
16/06:05am 10.1 1.2 7.7 85 1.2 NW 44 78 24 42 982.0 982.0 11.8
16/06:03am 10.5 2.3 8.1 85 1.2 NW 41 78 22 42 981.6 981.6 11.8
16/06:00am 10.9 3.5 8.5 85 1.2 NW 37 61 20 33 981.8 981.8 11.8
16/05:30am 10.9 3.6 8.7 86 1.1 NW 37 57 20 31 981.9 981.9 11.8
16/05:28am 10.6 3.6 8.4 86 1.1 NW 35 57 19 31 981.8 981.8 11.8
16/05:11am 11.3 3.7 8.9 85 1.2 NW 39 56 21 30 982.2 982.2 11.2
16/05:00am 11.9 3.6 9.5 85 1.2 NW 43 56 23 30 982.1 982.1 10.6
16/04:30am 11.5 2.7 9.4 87 1.1 NW 46 56 25 30 982.2 982.2 10.6
16/04:00am 11.4 3.1 9.5 88 1.0 NW 43 61 23 33 982.3 982.3 10.6
16/03:30am 11.1 1.1 9.5 90 0.8 NNW 52 69 28 37 982.4 982.4 10.6
16/03:00am 10.4 1.8 8.8 90 0.8 NNW 44 57 24 31 983.2 983.2 10.4
16/02:35am 11.6 1.4 8.6 82 1.5 N 52 96 28 52 982.5 982.5 9.2
16/02:34am 12.0 2.7 9.0 82 1.5 N 48 72 26 39 982.9 982.9 8.8
16/02:30am 11.9 3.3 8.9 82 1.5 N 44 52 24 28 983.2 983.2 8.8
16/02:00am 11.9 2.2 9.1 83 1.4 N 50 59 27 32 983.4 983.4 8.8
16/01:30am 11.6 3.3 9.2 85 1.2 N 43 50 23 27 984.6 984.6 8.8
16/01:00am 11.7 4.5 9.3 85 1.2 N 37 44 20 24 985.5 985.5 8.8
16/12:30am 11.5 4.7 9.1 85 1.2 NNW 35 50 19 27 986.1 986.1 8.8
16/12:00am 10.8 4.1 8.2 84 1.3 NNW 33 44 18 24 987.0 987.0 8.8
 
Date/Time
EST
Temp
°C
App
Temp
°C
Dew
Point
°C
Rel
Hum
%
Delta-T
°C
Wind Press
QNH
hPa
Press
MSL
hPa
Rain since
9am
mm
Dir  Spd
km/h
Gust
km/h
Spd
kts
Gust
kts
15/11:30pm 11.5 4.9 8.4 81 1.5 NNW 33 50 18 27 987.4 987.4 6.4
15/11:00pm 12.1 5.6 9.1 82 1.5 NNW 33 46 18 25 988.2 988.2 6.2
15/10:30pm 12.0 4.8 9.2 83 1.4 NNW 37 52 20 28 988.9 988.9 6.2
15/10:00pm 12.1 6.4 9.7 85 1.2 NNW 30 44 16 24 989.4 989.4 6.2
15/09:30pm 11.7 5.3 9.3 85 1.2 NNW 33 43 18 23 989.8 989.8 6.2
15/09:00pm 11.4 5.6 9.3 87 1.1 NW 30 37 16 20 990.1 990.1 6.2
15/08:30pm 11.5 6.5 9.4 87 1.1 NW 26 33 14 18 990.4 990.4 6.2
15/08:00pm 11.2 5.0 9.3 88 1.0 NW 32 46 17 25 990.5 990.5 6.2
15/07:30pm 11.5 5.7 9.6 88 1.0 NW 30 43 16 23 990.5 990.5 6.2
15/07:00pm 12.2 7.7 9.9 86 1.2 NW 24 35 13 19 990.5 990.5 4.8
15/06:30pm 12.3 7.1 10.2 87 1.1 NW 28 35 15 19 990.7 990.7 4.8
15/06:00pm 12.2 6.6 10.1 87 1.1 NW 30 39 16 21 990.6 990.6 4.8
15/05:30pm 12.3 7.5 10.2 87 1.1 NW 26 39 14 21 990.7 990.7 4.8
15/05:00pm 12.5 7.7 10.4 87 1.1 NW 26 37 14 20 990.5 990.5 4.8
15/04:30pm 13.2 7.3 11.3 88 1.0 NW 33 46 18 25 990.2 990.2 4.8
15/04:06pm 13.7 8.2 11.9 89 1.0 NW 32 52 17 28 990.4 990.4 4.8
15/04:00pm 13.4 7.6 11.5 88 1.0 NW 33 52 18 28 990.3 990.3 4.8
15/03:49pm 13.8 6.6 12.0 89 1.0 NW 41 59 22 32 990.2 990.2 4.8
15/03:30pm 13.7 5.9 11.9 89 1.0 NW 44 61 24 33 990.2 990.2 4.8
15/03:23pm 13.9 7.1 12.1 89 1.0 NW 39 57 21 31 990.1 990.1 4.8
15/03:22pm 13.9 7.5 12.1 89 1.0 NW 37 56 20 30 990.2 990.2 4.8
15/03:00pm 13.7 6.1 11.9 89 1.0 NNW 43 67 23 36 989.9 989.9 4.8
15/02:35pm 13.5 4.5 11.6 88 1.0 N 50 70 27 38 989.7 989.7 4.4
15/02:30pm 13.3 3.5 11.4 88 1.0 N 54 69 29 37 989.7 989.7 4.2
15/02:10pm 13.3 3.1 11.4 88 1.0 N 56 78 30 42 989.3 989.3 3.8
15/02:00pm 13.0 2.7 10.9 87 1.1 N 56 72 30 39 989.7 989.7 3.6
15/01:57pm 13.0 2.1 10.9 87 1.1 N 59 78 32 42 989.7 989.7 3.6
15/01:30pm 12.9 0.4 10.6 86 1.2 N 67 85 36 46 989.0 989.0 2.4
15/01:23pm 12.9 1.9 10.6 86 1.2 N 59 80 32 43 989.1 989.1 1.8
15/01:00pm 12.1 0.4 9.5 84 1.3 NNE 61 72 33 39 989.3 989.3 1.0
15/12:30pm 12.6 1.2 9.1 79 1.8 NNE 59 70 32 38 990.0 990.0 0.4
15/12:00pm 12.6 0.3 8.5 76 2.1 NNE 63 76 34 41 990.6 990.6 0.2
15/11:30am 13.7 0.7 8.7 72 2.5 NNE 67 83 36 45 990.4 990.4 0.0
15/11:00am 13.5 2.4 8.6 72 2.5 NNE 57 74 31 40 991.8 991.8 0.0
15/10:36am 13.4 2.2 8.5 72 2.5 NNE 57 76 31 41 993.2 993.2 0.0
15/10:30am 13.0 2.0 8.3 73 2.3 NNE 56 69 30 37 993.6 993.6 0.0
15/10:00am 12.3 2.6 7.6 73 2.3 NNE 48 59 26 32 995.0 995.0 0.0
15/09:30am 12.0 0.7 7.3 73 2.3 NNE 56 69 30 37 996.2 996.2 0.0
15/09:00am 11.7 1.1 7.0 73 2.3 NNE 52 63 28 34 997.6 997.6 0.2
15/08:30am 10.8 0.8 6.0 72 2.2 NNE 48 59 26 32 998.5 998.5 0.2
15/08:00am 11.0 1.3 5.7 70 2.5 NNE 46 56 25 30 999.5 999.5 0.2
15/07:30am 11.0 1.6 5.3 68 2.6 NNE 44 52 24 28 999.8 999.8 0.2
15/07:00am 10.7 1.7 4.8 67 2.7 NNE 41 54 22 29 1000.4 1000.4 0.2
15/06:30am 10.5 3.1 5.1 69 2.5 NNE 33 39 18 21 1001.3 1001.3 0.2
15/06:00am 10.0 2.6 5.2 72 2.2 NNE 33 41 18 22 1002.1 1002.1 0.2
15/05:30am 9.7 2.4 5.5 75 1.9 NNE 33 39 18 21 1002.8 1002.8 0.2
15/05:00am 9.5 2.5 5.9 78 1.7 NNE 32 39 17 21 1003.3 1003.3 0.2
15/04:30am 9.3 2.7 6.2 81 1.4 NNE 30 37 16 20 1004.1 1004.2 0.2
15/04:00am 9.3 2.8 6.4 82 1.3 NNE 30 33 16 18 1004.4 1004.5 0.2
15/03:30am 9.2 3.0 6.1 81 1.4 NNE 28 32 15 17 1004.9 1005.0 0.2
15/03:00am 9.4 3.6 6.1 80 1.5 NE 26 32 14 17 1005.3 1005.4 0.2
15/02:30am 9.5 3.6 6.0 79 1.6 NNE 26 30 14 16 1006.4 1006.5 0.2
15/02:00am 10.0 4.6 6.3 78 1.7 NNE 24 30 13 16 1007.2 1007.3 0.2
15/01:30am 9.9 5.2 5.9 76 1.8 NE 20 24 11 13 1007.8 1007.9 0.2
15/01:00am 10.8 6.2 6.4 74 2.1 NNE 20 26 11 14 1008.2 1008.3 0.2
15/12:30am 11.0 6.9 6.2 72 2.2 NNW 17 26 9 14 1008.3 1008.4 0.2
15/12:00am 11.1 6.6 6.3 72 2.3 NNW 19 28 10 15 1008.7 1008.8 0.2
 
Date/Time
EST
Temp
°C
App
Temp
°C
Dew
Point
°C
Rel
Hum
%
Delta-T
°C
Wind Press
QNH
hPa
Press
MSL
hPa
Rain since
9am
mm
Dir  Spd
km/h
Gust
km/h
Spd
kts
Gust
kts
14/11:30pm 11.2 6.7 6.3 72 2.3 NNW 19 26 10 14 1009.0 1009.1 0.2
14/11:00pm 11.0 6.9 6.4 73 2.2 NW 17 24 9 13 1009.4 1009.5 0.2
14/10:30pm 10.8 7.5 6.2 73 2.1 NW 13 19 7 10 1009.8 1009.9 0.2
14/10:00pm 10.5 6.7 5.7 72 2.2 WNW 15 20 8 11 1010.1 1010.2 0.2
14/09:30pm 10.9 6.8 6.1 72 2.2 WNW 17 20 9 11 1010.5 1010.6 0.2
14/09:00pm 10.9 6.7 5.9 71 2.3 WNW 17 22 9 12 1010.6 1010.7 0.2
14/08:30pm 11.0 6.3 6.0 71 2.3 WNW 20 26 11 14 1010.5 1010.6 0.2
14/08:00pm 11.1 6.4 6.0 71 2.4 WNW 20 28 11 15 1010.4 1010.5 0.2
14/07:30pm 11.0 6.9 6.2 72 2.2 WNW 17 24 9 13 1010.5 1010.6 0.2
14/07:00pm 11.2 6.6 6.3 72 2.3 WNW 20 28 11 15 1010.2 1010.3 0.2
14/06:30pm 11.5 6.2 6.6 72 2.3 WNW 24 32 13 17 1009.9 1010.0 0.2
14/06:00pm 11.5 6.5 6.6 72 2.3 WNW 22 30 12 16 1010.0 1010.1 0.2
14/05:30pm 11.5 6.2 6.6 72 2.3 WNW 24 30 13 16 1009.8 1009.9 0.2
14/05:00pm 11.6 5.5 6.5 71 2.4 WNW 28 35 15 19 1009.6 1009.7 0.2
14/04:30pm 12.1 6.8 6.8 70 2.5 WNW 24 35 13 19 1009.4 1009.5 0.2
14/04:00pm 12.1 6.0 6.6 69 2.6 W 28 39 15 21 1009.6 1009.7 0.2
14/03:30pm 12.4 6.0 6.9 69 2.6 W 30 41 16 22 1009.5 1009.6 0.2
14/03:00pm 13.0 7.0 7.2 68 2.8 W 28 35 15 19 1009.2 1009.3 0.2
14/02:30pm 12.2 6.2 6.9 70 2.5 W 28 39 15 21 1009.1 1009.2 0.2
14/02:00pm 12.1 6.5 7.0 71 2.5 W 26 37 14 20 1008.8 1008.9 0.2

Other Formats:

Comma delimited format used in spreadsheet applications
http://www.bom.gov.au/fwo/IDT60801/IDT60801.94974.axf

JavaScript Object Notation format (JSON) in row-major order
http://www.bom.gov.au/fwo/IDT60801/IDT60801.94974.json